Terminal Aerodrome Forecast
Issued by NWS

Home | Current Version | Previous Version | Text Only | Print | Product List | Glossary On
Versions: 1 2 3 4 5 6 7 8 9 10 11 12 13 14 15 16 17
000
FTUS41 KAKQ 092300
TAFPHF
TAF
KPHF 092337Z 1000/1024 20010KT 6SM -SHRA SCT050 BKN090
      TEMPO 1000/1002 4SM TSRA BR BKN030CB
     FM100200 22004KT P6SM SCT040 BKN200
      TEMPO 1002/1006 4SM -SHRA BR OVC040
     FM101400 25009KT P6SM FEW040 BKN150
     FM101800 26007KT 4SM -SHRA BR OVC045=

USA.gov is the U.S. government's official web portal to all federal, state and local government web resources and services.